createdAt,value
2023-03-22T00:02:04.274Z,8.65
2023-03-22T00:04:31.245Z,8.65
2023-03-22T00:06:57.673Z,8.60
2023-03-22T00:09:24.111Z,8.58
2023-03-22T00:11:51.020Z,8.57
2023-03-22T00:14:20.948Z,8.54
2023-03-22T00:16:49.120Z,8.48
2023-03-22T00:19:17.287Z,8.41
2023-03-22T00:21:43.775Z,8.36
2023-03-22T00:24:10.237Z,8.38
2023-03-22T00:26:36.710Z,8.35
2023-03-22T00:29:03.590Z,8.34
2023-03-22T00:31:30.278Z,8.32
2023-03-22T00:33:56.733Z,8.29
2023-03-22T00:36:23.389Z,8.30
2023-03-22T00:38:49.925Z,8.30
2023-03-22T00:41:19.136Z,8.32
2023-03-22T00:43:47.025Z,8.33
2023-03-22T00:46:16.210Z,8.33
2023-03-22T00:48:43.106Z,8.34
2023-03-22T00:51:10.318Z,8.34
2023-03-22T00:53:37.569Z,8.33
2023-03-22T00:56:05.649Z,8.30
2023-03-22T00:58:32.561Z,8.28
2023-03-22T01:00:59.246Z,8.24
2023-03-22T01:03:25.903Z,8.20
2023-03-22T01:05:55.604Z,8.24
2023-03-22T01:08:23.162Z,8.23
2023-03-22T01:10:50.226Z,8.19
2023-03-22T01:13:17.991Z,8.15
2023-03-22T01:15:44.999Z,8.16
2023-03-22T01:18:11.523Z,8.15
2023-03-22T01:20:38.366Z,8.15
2023-03-22T01:23:05.027Z,8.14
2023-03-22T01:25:31.532Z,8.12
2023-03-22T01:27:58.189Z,8.14
2023-03-22T01:30:24.675Z,8.14
2023-03-22T01:32:51.262Z,8.10
2023-03-22T01:35:17.820Z,8.11
2023-03-22T01:37:44.219Z,8.12
2023-03-22T01:40:13.161Z,8.10
2023-03-22T01:42:39.754Z,8.05
2023-03-22T01:45:15.753Z,8.03
2023-03-22T01:47:50.662Z,8.02
2023-03-22T01:50:17.854Z,8.04
2023-03-22T01:52:44.734Z,8.02
2023-03-22T01:55:12.625Z,8.05
2023-03-22T01:57:42.245Z,8.06
2023-03-22T02:00:15.780Z,8.07
2023-03-22T02:02:44.059Z,8.07
2023-03-22T02:05:12.374Z,8.08
2023-03-22T02:07:40.763Z,8.09
2023-03-22T02:10:13.593Z,8.10
2023-03-22T02:13:18.999Z,8.09
2023-03-22T02:16:24.570Z,8.11
2023-03-22T02:19:06.166Z,8.11
2023-03-22T02:22:09.839Z,8.11
2023-03-22T02:25:07.646Z,8.12
2023-03-22T02:28:28.973Z,8.12
2023-03-22T02:31:16.269Z,8.13
2023-03-22T02:33:50.200Z,8.13
2023-03-22T02:36:46.476Z,8.14
2023-03-22T02:39:28.238Z,8.15
2023-03-22T02:42:19.303Z,8.19
2023-03-22T02:45:07.804Z,8.23
2023-03-22T02:47:49.776Z,8.27
2023-03-22T02:50:32.455Z,8.26
2023-03-22T02:53:13.672Z,8.30
2023-03-22T02:56:03.323Z,8.31
2023-03-22T02:58:35.989Z,8.31
2023-03-22T03:01:07.234Z,8.32
2023-03-22T03:03:37.656Z,8.37
2023-03-22T03:06:13.530Z,8.41
2023-03-22T03:08:40.995Z,8.41
2023-03-22T03:11:07.527Z,8.42
2023-03-22T03:13:33.927Z,8.42
2023-03-22T03:16:02.732Z,8.42
2023-03-22T03:18:40.676Z,8.44
2023-03-22T03:21:30.012Z,8.41
2023-03-22T03:24:18.278Z,8.41
2023-03-22T03:26:47.404Z,8.38
2023-03-22T03:29:31.833Z,8.38
2023-03-22T03:32:22.497Z,8.40
2023-03-22T03:34:57.206Z,8.42
2023-03-22T03:37:31.559Z,8.42
2023-03-22T03:40:08.930Z,8.40
2023-03-22T03:42:38.294Z,8.41
2023-03-22T03:45:07.168Z,8.42
2023-03-22T03:47:35.826Z,8.44
2023-03-22T03:50:04.676Z,8.46
2023-03-22T03:52:31.476Z,8.47
2023-03-22T03:54:58.379Z,8.50
2023-03-22T03:57:24.817Z,8.51
2023-03-22T03:59:51.211Z,8.54
2023-03-22T04:02:17.728Z,8.60
2023-03-22T04:04:44.241Z,8.65
2023-03-22T04:07:10.929Z,8.68
2023-03-22T04:09:39.025Z,8.69
2023-03-22T04:12:05.573Z,8.70
2023-03-22T04:14:31.978Z,8.69
2023-03-22T04:16:58.456Z,8.68
2023-03-22T04:19:24.970Z,8.73
2023-03-22T04:21:53.098Z,8.76
2023-03-22T04:24:21.509Z,8.79
2023-03-22T04:26:47.989Z,8.84
2023-03-22T04:29:14.577Z,8.86
2023-03-22T04:31:41.139Z,8.87
2023-03-22T04:34:07.694Z,8.92
2023-03-22T04:36:39.270Z,8.95
2023-03-22T04:39:08.748Z,8.96
2023-03-22T04:41:36.002Z,9.00
2023-03-22T04:44:03.824Z,9.00
2023-03-22T04:46:31.698Z,9.04
2023-03-22T04:48:58.451Z,9.04
2023-03-22T04:51:26.030Z,9.02
2023-03-22T04:53:53.238Z,8.99
2023-03-22T04:56:20.279Z,9.01
2023-03-22T04:58:47.118Z,9.05
2023-03-22T05:01:15.698Z,9.03
2023-03-22T05:03:43.004Z,9.05
2023-03-22T05:06:10.252Z,9.07
2023-03-22T05:08:36.884Z,9.05
2023-03-22T05:11:10.152Z,9.04
2023-03-22T05:13:37.587Z,9.00
2023-03-22T05:16:05.589Z,8.98
2023-03-22T05:18:32.740Z,8.96
2023-03-22T05:21:00.759Z,8.93
2023-03-22T05:23:27.249Z,8.91
2023-03-22T05:25:54.249Z,8.89
2023-03-22T05:28:21.494Z,8.89
2023-03-22T05:30:49.321Z,8.90
2023-03-22T05:33:16.973Z,8.90
2023-03-22T05:35:43.698Z,8.81
2023-03-22T05:38:10.626Z,8.80
2023-03-22T05:40:37.228Z,8.80
2023-03-22T05:43:03.893Z,8.81
2023-03-22T05:45:31.678Z,8.79
2023-03-22T05:47:58.505Z,8.78
2023-03-22T05:50:24.945Z,8.82
2023-03-22T05:52:52.062Z,8.83
2023-03-22T05:55:19.103Z,8.83
2023-03-22T05:57:46.740Z,8.83
2023-03-22T06:00:16.112Z,8.82
2023-03-22T06:02:43.851Z,8.82
2023-03-22T06:05:13.677Z,8.87
2023-03-22T06:07:41.190Z,8.88
2023-03-22T06:10:11.019Z,8.93
2023-03-22T06:12:37.467Z,8.98
2023-03-22T06:15:04.706Z,9.02
2023-03-22T06:17:31.461Z,9.09
2023-03-22T06:19:57.980Z,9.14
2023-03-22T06:22:24.461Z,9.20
2023-03-22T06:24:51.110Z,9.23
2023-03-22T06:27:18.010Z,9.31
2023-03-22T06:29:49.685Z,9.29
2023-03-22T06:32:16.964Z,9.33
2023-03-22T06:34:43.973Z,9.52
2023-03-22T06:37:10.391Z,10.46
2023-03-22T06:39:36.767Z,11.87
2023-03-22T06:42:03.376Z,12.90
2023-03-22T06:44:29.884Z,13.63
2023-03-22T06:46:56.300Z,13.33
2023-03-22T06:49:22.757Z,12.14
2023-03-22T06:51:49.170Z,11.52
2023-03-22T06:54:16.762Z,11.20
2023-03-22T06:56:43.341Z,10.94
2023-03-22T06:59:09.704Z,10.76
2023-03-22T07:01:36.387Z,10.69
2023-03-22T07:04:02.989Z,10.73
2023-03-22T07:06:30.797Z,10.73
2023-03-22T07:08:57.231Z,10.64
2023-03-22T07:11:25.770Z,10.59
2023-03-22T07:13:55.359Z,10.56
2023-03-22T07:16:22.507Z,10.59
2023-03-22T07:18:49.159Z,10.56
2023-03-22T07:21:15.685Z,10.50
2023-03-22T07:23:42.135Z,10.43
2023-03-22T07:26:08.748Z,10.38
2023-03-22T07:28:35.444Z,10.38
2023-03-22T07:31:04.192Z,10.40
2023-03-22T07:33:32.796Z,10.46
2023-03-22T07:35:59.374Z,10.58
2023-03-22T07:38:25.849Z,10.70
2023-03-22T07:40:54.647Z,10.78
2023-03-22T07:43:22.387Z,10.77
2023-03-22T07:45:50.019Z,10.79
2023-03-22T07:48:17.302Z,10.82
2023-03-22T07:50:44.190Z,10.90
2023-03-22T07:53:11.358Z,10.93
2023-03-22T07:55:38.405Z,10.86
2023-03-22T07:58:06.084Z,10.88
2023-03-22T08:00:32.822Z,10.96
2023-03-22T08:02:59.277Z,10.97
2023-03-22T08:05:25.738Z,11.20
2023-03-22T08:07:52.558Z,11.30
2023-03-22T08:10:19.403Z,11.30
2023-03-22T08:12:46.174Z,11.40
2023-03-22T08:15:12.899Z,11.59
2023-03-22T08:17:39.536Z,11.61
2023-03-22T08:20:09.022Z,11.59
2023-03-22T08:22:36.502Z,11.52
2023-03-22T08:25:04.680Z,11.44
2023-03-22T08:27:31.554Z,11.28
2023-03-22T08:29:58.270Z,11.19
2023-03-22T08:32:25.322Z,11.18
2023-03-22T08:34:52.754Z,11.20
2023-03-22T08:37:22.145Z,11.21
2023-03-22T08:39:48.652Z,11.24
2023-03-22T08:42:15.429Z,11.31
2023-03-22T08:44:41.896Z,11.36
2023-03-22T08:47:08.452Z,11.47
2023-03-22T08:49:34.893Z,11.47
2023-03-22T08:52:01.373Z,11.48
2023-03-22T08:54:33.453Z,11.55
2023-03-22T08:57:00.621Z,11.56
2023-03-22T08:59:27.227Z,11.55
2023-03-22T09:01:53.700Z,11.48
2023-03-22T09:04:20.251Z,11.39
2023-03-22T09:06:47.007Z,11.33
2023-03-22T09:09:13.632Z,11.27
2023-03-22T09:11:44.888Z,11.23
2023-03-22T09:14:11.403Z,11.27
2023-03-22T09:16:37.880Z,11.25
2023-03-22T09:19:04.731Z,11.27
2023-03-22T09:21:31.118Z,11.32
2023-03-22T09:23:57.915Z,11.36
2023-03-22T09:26:25.563Z,11.37
2023-03-22T09:28:52.262Z,11.43
2023-03-22T09:31:20.543Z,11.39
2023-03-22T09:33:47.321Z,11.32
2023-03-22T09:36:13.945Z,11.31
2023-03-22T09:38:41.296Z,11.30
2023-03-22T09:41:15.500Z,11.21
2023-03-22T09:43:48.334Z,11.12
2023-03-22T09:46:20.465Z,11.08
2023-03-22T09:48:49.512Z,11.05
2023-03-22T09:51:40.706Z,10.98
2023-03-22T09:54:15.312Z,10.92
2023-03-22T09:56:44.060Z,10.94
2023-03-22T09:59:22.010Z,10.94
2023-03-22T10:02:34.790Z,10.85
2023-03-22T10:05:16.097Z,10.74
2023-03-22T10:08:03.703Z,10.70
2023-03-22T10:10:30.459Z,10.64
2023-03-22T10:13:00.203Z,10.62
2023-03-22T10:15:36.789Z,10.60
2023-03-22T10:18:07.831Z,10.57
2023-03-22T10:20:46.702Z,10.54
2023-03-22T10:23:30.720Z,10.54
2023-03-22T10:26:00.994Z,10.54
2023-03-22T10:28:35.180Z,10.52
2023-03-22T10:31:03.725Z,10.55
2023-03-22T10:33:38.256Z,10.54
2023-03-22T10:36:08.212Z,10.56
2023-03-22T10:38:42.027Z,10.54
2023-03-22T10:41:09.698Z,10.55
2023-03-22T10:43:38.046Z,10.56
2023-03-22T10:46:09.205Z,10.53
2023-03-22T10:48:40.611Z,10.53
2023-03-22T10:51:11.149Z,10.54
2023-03-22T10:53:40.625Z,10.48
2023-03-22T10:56:13.967Z,10.44
2023-03-22T10:58:40.392Z,10.40
2023-03-22T11:01:13.042Z,10.43
2023-03-22T11:03:48.373Z,10.53
2023-03-22T11:06:17.783Z,10.54
2023-03-22T11:08:50.136Z,10.57
2023-03-22T11:11:20.985Z,10.60
2023-03-22T11:14:08.325Z,10.68
2023-03-22T11:16:52.598Z,10.78
2023-03-22T11:19:49.546Z,10.85
2023-03-22T11:22:18.963Z,10.81
2023-03-22T11:24:47.043Z,10.78
2023-03-22T11:27:16.954Z,10.84
2023-03-22T11:29:46.933Z,10.90
2023-03-22T11:32:25.293Z,10.93
2023-03-22T11:35:05.794Z,10.92
2023-03-22T11:37:32.241Z,10.90
2023-03-22T11:40:04.585Z,10.93
2023-03-22T11:42:34.309Z,10.95
2023-03-22T11:45:00.761Z,10.98
2023-03-22T11:47:34.701Z,10.96
2023-03-22T11:50:04.981Z,11.01
2023-03-22T11:52:31.475Z,11.01
2023-03-22T11:54:59.952Z,11.03
2023-03-22T11:57:30.214Z,11.02
2023-03-22T12:00:13.920Z,10.97
2023-03-22T12:02:52.434Z,10.94
2023-03-22T12:05:27.315Z,10.91
2023-03-22T12:08:06.851Z,10.90
2023-03-22T12:10:47.506Z,10.89
2023-03-22T12:13:59.875Z,10.88
2023-03-22T12:16:36.103Z,10.87
2023-03-22T12:19:27.001Z,10.89
2023-03-22T12:21:54.933Z,10.92
2023-03-22T12:24:29.989Z,10.94
2023-03-22T12:27:31.878Z,10.94
2023-03-22T12:30:01.044Z,10.93
2023-03-22T12:32:34.218Z,10.96
2023-03-22T12:35:17.991Z,10.96
2023-03-22T12:37:51.490Z,10.98
2023-03-22T12:40:35.157Z,10.98
2023-03-22T12:43:21.373Z,10.96
2023-03-22T12:45:57.834Z,10.98
2023-03-22T12:48:30.410Z,10.98
2023-03-22T12:51:00.695Z,11.01
2023-03-22T12:53:32.687Z,11.01
2023-03-22T12:56:01.075Z,11.00
2023-03-22T12:58:27.601Z,11.02
2023-03-22T13:01:06.619Z,11.04
2023-03-22T13:03:52.009Z,11.08
2023-03-22T13:06:44.729Z,11.08
2023-03-22T13:09:37.135Z,11.11
2023-03-22T13:12:31.796Z,11.12
2023-03-22T13:15:01.748Z,11.12
2023-03-22T13:17:28.073Z,11.09
2023-03-22T13:20:07.012Z,11.06
2023-03-22T13:22:36.430Z,11.03
2023-03-22T13:25:16.768Z,11.01
2023-03-22T13:27:46.295Z,11.03
2023-03-22T13:30:24.216Z,11.04
2023-03-22T13:32:56.514Z,11.06
2023-03-22T13:35:34.628Z,11.05
2023-03-22T13:38:07.595Z,11.09
2023-03-22T13:41:03.556Z,11.12
2023-03-22T13:43:36.453Z,11.14
2023-03-22T13:46:07.980Z,11.14
2023-03-22T13:48:41.146Z,11.14
2023-03-22T13:51:12.216Z,11.13
2023-03-22T13:53:43.700Z,11.13
2023-03-22T13:56:13.297Z,11.13
2023-03-22T13:58:41.179Z,11.13
2023-03-22T14:01:21.685Z,11.14
2023-03-22T14:03:50.535Z,11.18
2023-03-22T14:06:28.908Z,11.20
2023-03-22T14:09:02.498Z,11.21
2023-03-22T14:11:44.321Z,11.23
2023-03-22T14:14:15.848Z,11.21
2023-03-22T14:16:46.944Z,11.22
2023-03-22T14:19:21.960Z,11.24
